sensor_id;sensor_type;location;lat;lon;timestamp;P1;durP1;ratioP1;P2;durP2;ratioP2
43124;SDS011;49182;50.788;7.318;2022-08-06T00:02:36;3.80;;;1.30;;
43124;SDS011;49182;50.788;7.318;2022-08-06T00:05:04;2.85;;;1.40;;
43124;SDS011;49182;50.788;7.318;2022-08-06T00:07:32;2.42;;;1.30;;
43124;SDS011;49182;50.788;7.318;2022-08-06T00:10:12;4.88;;;1.35;;
43124;SDS011;49182;50.788;7.318;2022-08-06T00:12:40;2.88;;;1.27;;
43124;SDS011;49182;50.788;7.318;2022-08-06T00:15:07;2.88;;;1.30;;
43124;SDS011;49182;50.788;7.318;2022-08-06T00:17:39;5.43;;;1.23;;
43124;SDS011;49182;50.788;7.318;2022-08-06T00:20:07;2.88;;;1.20;;
43124;SDS011;49182;50.788;7.318;2022-08-06T00:22:36;9.85;;;1.45;;
43124;SDS011;49182;50.788;7.318;2022-08-06T00:25:03;2.80;;;1.23;;
43124;SDS011;49182;50.788;7.318;2022-08-06T00:27:32;3.47;;;1.30;;
43124;SDS011;49182;50.788;7.318;2022-08-06T00:30:05;4.68;;;1.38;;
43124;SDS011;49182;50.788;7.318;2022-08-06T00:32:40;3.30;;;1.15;;
43124;SDS011;49182;50.788;7.318;2022-08-06T00:35:07;3.53;;;1.40;;
43124;SDS011;49182;50.788;7.318;2022-08-06T00:37:34;3.88;;;1.30;;
43124;SDS011;49182;50.788;7.318;2022-08-06T00:40:20;3.78;;;1.02;;
43124;SDS011;49182;50.788;7.318;2022-08-06T00:42:51;2.97;;;1.17;;
43124;SDS011;49182;50.788;7.318;2022-08-06T00:45:20;2.53;;;1.30;;
43124;SDS011;49182;50.788;7.318;2022-08-06T00:47:50;2.92;;;1.30;;
43124;SDS011;49182;50.788;7.318;2022-08-06T00:50:29;3.60;;;1.40;;
43124;SDS011;49182;50.788;7.318;2022-08-06T00:52:56;3.50;;;1.20;;
43124;SDS011;49182;50.788;7.318;2022-08-06T00:55:23;4.55;;;1.33;;
43124;SDS011;49182;50.788;7.318;2022-08-06T00:58:03;5.80;;;1.40;;
43124;SDS011;49182;50.788;7.318;2022-08-06T01:00:30;2.85;;;1.10;;
43124;SDS011;49182;50.788;7.318;2022-08-06T01:03:04;2.65;;;1.20;;
43124;SDS011;49182;50.788;7.318;2022-08-06T01:05:31;2.05;;;1.10;;
43124;SDS011;49182;50.788;7.318;2022-08-06T01:08:18;2.78;;;1.20;;
43124;SDS011;49182;50.788;7.318;2022-08-06T01:10:44;4.03;;;1.50;;
43124;SDS011;49182;50.788;7.318;2022-08-06T01:13:12;6.85;;;1.30;;
43124;SDS011;49182;50.788;7.318;2022-08-06T01:15:51;2.95;;;1.55;;
43124;SDS011;49182;50.788;7.318;2022-08-06T01:18:35;3.22;;;1.30;;
43124;SDS011;49182;50.788;7.318;2022-08-06T01:21:09;3.70;;;1.35;;
43124;SDS011;49182;50.788;7.318;2022-08-06T01:24:17;4.20;;;1.50;;
43124;SDS011;49182;50.788;7.318;2022-08-06T01:27:00;3.03;;;1.55;;
43124;SDS011;49182;50.788;7.318;2022-08-06T01:29:46;2.38;;;1.27;;
43124;SDS011;49182;50.788;7.318;2022-08-06T01:32:23;2.53;;;1.33;;
43124;SDS011;49182;50.788;7.318;2022-08-06T01:34:55;3.05;;;1.30;;
43124;SDS011;49182;50.788;7.318;2022-08-06T01:37:28;3.97;;;1.40;;
43124;SDS011;49182;50.788;7.318;2022-08-06T01:40:06;4.22;;;1.45;;
43124;SDS011;49182;50.788;7.318;2022-08-06T01:42:41;3.60;;;1.48;;
43124;SDS011;49182;50.788;7.318;2022-08-06T01:45:19;3.00;;;1.17;;
43124;SDS011;49182;50.788;7.318;2022-08-06T01:48:09;3.97;;;1.48;;
43124;SDS011;49182;50.788;7.318;2022-08-06T01:50:44;4.07;;;1.35;;
43124;SDS011;49182;50.788;7.318;2022-08-06T01:53:15;3.63;;;1.30;;
43124;SDS011;49182;50.788;7.318;2022-08-06T01:56:06;5.03;;;1.52;;
43124;SDS011;49182;50.788;7.318;2022-08-06T01:58:36;3.72;;;1.35;;
43124;SDS011;49182;50.788;7.318;2022-08-06T02:01:12;5.13;;;1.38;;
43124;SDS011;49182;50.788;7.318;2022-08-06T02:03:46;3.65;;;1.40;;
43124;SDS011;49182;50.788;7.318;2022-08-06T02:06:26;2.35;;;1.40;;
43124;SDS011;49182;50.788;7.318;2022-08-06T02:08:57;3.00;;;1.42;;
43124;SDS011;49182;50.788;7.318;2022-08-06T02:11:48;4.82;;;1.45;;
43124;SDS011;49182;50.788;7.318;2022-08-06T02:14:34;3.50;;;1.40;;
43124;SDS011;49182;50.788;7.318;2022-08-06T02:17:08;4.13;;;1.50;;
43124;SDS011;49182;50.788;7.318;2022-08-06T02:19:40;2.75;;;1.52;;
43124;SDS011;49182;50.788;7.318;2022-08-06T02:22:13;3.88;;;1.42;;
43124;SDS011;49182;50.788;7.318;2022-08-06T02:24:52;4.68;;;1.58;;
43124;SDS011;49182;50.788;7.318;2022-08-06T02:27:19;4.30;;;1.60;;
43124;SDS011;49182;50.788;7.318;2022-08-06T02:30:09;3.97;;;1.60;;
43124;SDS011;49182;50.788;7.318;2022-08-06T02:32:38;4.75;;;1.50;;
43124;SDS011;49182;50.788;7.318;2022-08-06T02:35:08;3.63;;;1.70;;
43124;SDS011;49182;50.788;7.318;2022-08-06T02:37:36;2.80;;;1.50;;
43124;SDS011;49182;50.788;7.318;2022-08-06T02:40:27;3.03;;;1.20;;
43124;SDS011;49182;50.788;7.318;2022-08-06T02:43:06;4.82;;;2.00;;
43124;SDS011;49182;50.788;7.318;2022-08-06T02:45:41;3.80;;;1.90;;
43124;SDS011;49182;50.788;7.318;2022-08-06T02:48:25;3.70;;;1.42;;
43124;SDS011;49182;50.788;7.318;2022-08-06T02:50:59;2.78;;;1.33;;
43124;SDS011;49182;50.788;7.318;2022-08-06T02:53:53;3.85;;;1.38;;
43124;SDS011;49182;50.788;7.318;2022-08-06T02:56:30;5.13;;;1.67;;
43124;SDS011;49182;50.788;7.318;2022-08-06T02:59:08;3.20;;;1.40;;
43124;SDS011;49182;50.788;7.318;2022-08-06T03:01:39;4.20;;;1.17;;
43124;SDS011;49182;50.788;7.318;2022-08-06T03:04:11;3.35;;;1.30;;
43124;SDS011;49182;50.788;7.318;2022-08-06T03:06:41;4.75;;;1.63;;
43124;SDS011;49182;50.788;7.318;2022-08-06T03:09:11;2.55;;;1.30;;
43124;SDS011;49182;50.788;7.318;2022-08-06T03:11:41;3.95;;;1.80;;
43124;SDS011;49182;50.788;7.318;2022-08-06T03:14:13;3.53;;;1.55;;
43124;SDS011;49182;50.788;7.318;2022-08-06T03:17:02;4.70;;;1.48;;
43124;SDS011;49182;50.788;7.318;2022-08-06T03:19:30;6.63;;;1.80;;
43124;SDS011;49182;50.788;7.318;2022-08-06T03:22:18;3.33;;;1.35;;
43124;SDS011;49182;50.788;7.318;2022-08-06T03:25:07;3.42;;;1.70;;
43124;SDS011;49182;50.788;7.318;2022-08-06T03:27:35;5.50;;;1.67;;
43124;SDS011;49182;50.788;7.318;2022-08-06T03:30:09;4.50;;;1.48;;
43124;SDS011;49182;50.788;7.318;2022-08-06T03:32:38;5.28;;;1.77;;
43124;SDS011;49182;50.788;7.318;2022-08-06T03:35:18;7.10;;;1.60;;
43124;SDS011;49182;50.788;7.318;2022-08-06T03:38:06;2.88;;;1.20;;
43124;SDS011;49182;50.788;7.318;2022-08-06T03:40:34;3.78;;;1.70;;
43124;SDS011;49182;50.788;7.318;2022-08-06T03:43:03;2.38;;;1.30;;
43124;SDS011;49182;50.788;7.318;2022-08-06T03:45:35;3.08;;;1.45;;
43124;SDS011;49182;50.788;7.318;2022-08-06T03:48:23;3.10;;;1.30;;
43124;SDS011;49182;50.788;7.318;2022-08-06T03:51:04;3.75;;;1.60;;
43124;SDS011;49182;50.788;7.318;2022-08-06T03:53:36;3.33;;;1.60;;
43124;SDS011;49182;50.788;7.318;2022-08-06T03:56:15;3.22;;;1.30;;
43124;SDS011;49182;50.788;7.318;2022-08-06T03:58:56;2.75;;;1.42;;
43124;SDS011;49182;50.788;7.318;2022-08-06T04:01:31;3.08;;;1.40;;
43124;SDS011;49182;50.788;7.318;2022-08-06T04:04:16;3.83;;;1.50;;
43124;SDS011;49182;50.788;7.318;2022-08-06T04:06:53;4.32;;;1.58;;
43124;SDS011;49182;50.788;7.318;2022-08-06T04:09:21;3.92;;;2.13;;
43124;SDS011;49182;50.788;7.318;2022-08-06T04:12:09;3.55;;;1.70;;
43124;SDS011;49182;50.788;7.318;2022-08-06T04:14:56;2.85;;;1.50;;
43124;SDS011;49182;50.788;7.318;2022-08-06T04:17:24;4.00;;;1.60;;
43124;SDS011;49182;50.788;7.318;2022-08-06T04:19:59;4.43;;;1.80;;
43124;SDS011;49182;50.788;7.318;2022-08-06T04:22:28;3.28;;;1.70;;
43124;SDS011;49182;50.788;7.318;2022-08-06T04:25:15;3.55;;;1.65;;
43124;SDS011;49182;50.788;7.318;2022-08-06T04:27:42;4.47;;;1.60;;
43124;SDS011;49182;50.788;7.318;2022-08-06T04:30:19;3.60;;;1.77;;
43124;SDS011;49182;50.788;7.318;2022-08-06T04:32:50;2.75;;;1.50;;
43124;SDS011;49182;50.788;7.318;2022-08-06T04:35:29;3.78;;;1.50;;
43124;SDS011;49182;50.788;7.318;2022-08-06T04:38:16;4.15;;;1.60;;
43124;SDS011;49182;50.788;7.318;2022-08-06T04:40:55;5.40;;;2.13;;
43124;SDS011;49182;50.788;7.318;2022-08-06T04:43:23;5.30;;;1.75;;
43124;SDS011;49182;50.788;7.318;2022-08-06T04:46:10;3.30;;;1.50;;
43124;SDS011;49182;50.788;7.318;2022-08-06T04:48:43;3.53;;;1.48;;
43124;SDS011;49182;50.788;7.318;2022-08-06T04:51:14;2.78;;;1.25;;
43124;SDS011;49182;50.788;7.318;2022-08-06T04:53:42;3.85;;;1.73;;
43124;SDS011;49182;50.788;7.318;2022-08-06T04:56:23;8.15;;;1.60;;
43124;SDS011;49182;50.788;7.318;2022-08-06T04:58:56;4.18;;;1.40;;
43124;SDS011;49182;50.788;7.318;2022-08-06T05:01:23;5.88;;;1.58;;
43124;SDS011;49182;50.788;7.318;2022-08-06T05:03:52;3.35;;;1.50;;
43124;SDS011;49182;50.788;7.318;2022-08-06T05:06:40;3.75;;;1.50;;
43124;SDS011;49182;50.788;7.318;2022-08-06T05:09:16;3.55;;;1.67;;
43124;SDS011;49182;50.788;7.318;2022-08-06T05:11:50;2.65;;;1.45;;
43124;SDS011;49182;50.788;7.318;2022-08-06T05:14:32;3.97;;;1.67;;
43124;SDS011;49182;50.788;7.318;2022-08-06T05:17:03;3.65;;;1.70;;
43124;SDS011;49182;50.788;7.318;2022-08-06T05:19:34;5.35;;;1.55;;
43124;SDS011;49182;50.788;7.318;2022-08-06T05:22:10;4.28;;;1.55;;
43124;SDS011;49182;50.788;7.318;2022-08-06T05:24:59;2.80;;;1.50;;
43124;SDS011;49182;50.788;7.318;2022-08-06T05:27:41;6.25;;;2.00;;
43124;SDS011;49182;50.788;7.318;2022-08-06T05:30:28;2.97;;;1.60;;
43124;SDS011;49182;50.788;7.318;2022-08-06T05:32:55;2.90;;;1.48;;
43124;SDS011;49182;50.788;7.318;2022-08-06T05:35:23;3.13;;;1.83;;
43124;SDS011;49182;50.788;7.318;2022-08-06T05:38:08;3.55;;;2.03;;
43124;SDS011;49182;50.788;7.318;2022-08-06T05:40:36;5.47;;;1.70;;
43124;SDS011;49182;50.788;7.318;2022-08-06T05:43:23;3.75;;;1.85;;
43124;SDS011;49182;50.788;7.318;2022-08-06T05:46:14;3.28;;;1.63;;
43124;SDS011;49182;50.788;7.318;2022-08-06T05:48:49;4.22;;;1.58;;
43124;SDS011;49182;50.788;7.318;2022-08-06T05:51:21;4.03;;;2.00;;
43124;SDS011;49182;50.788;7.318;2022-08-06T05:54:16;5.53;;;1.95;;
43124;SDS011;49182;50.788;7.318;2022-08-06T05:56:48;3.85;;;1.90;;
43124;SDS011;49182;50.788;7.318;2022-08-06T05:59:20;4.93;;;1.73;;
43124;SDS011;49182;50.788;7.318;2022-08-06T06:02:11;4.43;;;1.80;;
43124;SDS011;49182;50.788;7.318;2022-08-06T06:04:41;4.60;;;1.85;;
43124;SDS011;49182;50.788;7.318;2022-08-06T06:07:29;5.75;;;2.42;;
43124;SDS011;49182;50.788;7.318;2022-08-06T06:10:18;4.93;;;1.83;;
43124;SDS011;49182;50.788;7.318;2022-08-06T06:12:48;3.38;;;2.05;;
43124;SDS011;49182;50.788;7.318;2022-08-06T06:15:18;4.60;;;2.15;;
43124;SDS011;49182;50.788;7.318;2022-08-06T06:18:07;5.70;;;2.03;;
43124;SDS011;49182;50.788;7.318;2022-08-06T06:21:02;6.28;;;2.85;;
43124;SDS011;49182;50.788;7.318;2022-08-06T06:23:48;4.22;;;2.10;;
43124;SDS011;49182;50.788;7.318;2022-08-06T06:26:35;4.00;;;2.10;;
43124;SDS011;49182;50.788;7.318;2022-08-06T06:29:11;3.63;;;2.03;;
43124;SDS011;49182;50.788;7.318;2022-08-06T06:32:04;4.93;;;2.25;;
43124;SDS011;49182;50.788;7.318;2022-08-06T06:34:57;5.15;;;2.60;;
43124;SDS011;49182;50.788;7.318;2022-08-06T06:37:34;5.75;;;2.50;;
43124;SDS011;49182;50.788;7.318;2022-08-06T06:40:09;7.85;;;2.53;;
43124;SDS011;49182;50.788;7.318;2022-08-06T06:42:48;5.18;;;2.45;;
43124;SDS011;49182;50.788;7.318;2022-08-06T06:45:28;5.70;;;2.30;;
43124;SDS011;49182;50.788;7.318;2022-08-06T06:48:19;5.85;;;2.50;;
43124;SDS011;49182;50.788;7.318;2022-08-06T06:50:53;4.30;;;2.22;;
43124;SDS011;49182;50.788;7.318;2022-08-06T06:53:27;4.68;;;2.20;;
43124;SDS011;49182;50.788;7.318;2022-08-06T06:56:17;7.03;;;2.25;;
43124;SDS011;49182;50.788;7.318;2022-08-06T06:59:00;7.28;;;2.22;;
43124;SDS011;49182;50.788;7.318;2022-08-06T07:01:41;5.53;;;1.80;;
43124;SDS011;49182;50.788;7.318;2022-08-06T07:04:20;4.55;;;1.60;;
43124;SDS011;49182;50.788;7.318;2022-08-06T07:06:53;5.75;;;1.60;;
43124;SDS011;49182;50.788;7.318;2022-08-06T07:09:26;7.47;;;1.63;;
43124;SDS011;49182;50.788;7.318;2022-08-06T07:12:09;6.13;;;1.67;;
43124;SDS011;49182;50.788;7.318;2022-08-06T07:14:47;4.57;;;1.48;;
43124;SDS011;49182;50.788;7.318;2022-08-06T07:17:27;5.13;;;1.42;;
43124;SDS011;49182;50.788;7.318;2022-08-06T07:20:16;3.13;;;1.35;;
43124;SDS011;49182;50.788;7.318;2022-08-06T07:22:52;5.38;;;1.20;;
43124;SDS011;49182;50.788;7.318;2022-08-06T07:25:40;6.60;;;1.10;;
43124;SDS011;49182;50.788;7.318;2022-08-06T07:28:20;3.47;;;1.00;;
43124;SDS011;49182;50.788;7.318;2022-08-06T07:30:54;3.28;;;1.00;;
43124;SDS011;49182;50.788;7.318;2022-08-06T07:33:30;2.63;;;1.02;;
43124;SDS011;49182;50.788;7.318;2022-08-06T07:36:18;3.50;;;0.93;;
43124;SDS011;49182;50.788;7.318;2022-08-06T07:38:53;7.82;;;1.10;;
43124;SDS011;49182;50.788;7.318;2022-08-06T07:44:11;2.67;;;0.80;;
43124;SDS011;49182;50.788;7.318;2022-08-06T07:46:44;2.20;;;0.85;;
43124;SDS011;49182;50.788;7.318;2022-08-06T07:49:18;4.43;;;1.05;;
43124;SDS011;49182;50.788;7.318;2022-08-06T07:51:57;10.27;;;2.33;;
43124;SDS011;49182;50.788;7.318;2022-08-06T07:54:25;3.15;;;1.05;;
43124;SDS011;49182;50.788;7.318;2022-08-06T07:56:59;8.82;;;1.30;;
43124;SDS011;49182;50.788;7.318;2022-08-06T07:59:28;7.28;;;1.67;;
43124;SDS011;49182;50.788;7.318;2022-08-06T08:01:57;4.28;;;1.00;;
43124;SDS011;49182;50.788;7.318;2022-08-06T08:04:26;2.67;;;0.82;;
43124;SDS011;49182;50.788;7.318;2022-08-06T08:07:00;4.13;;;0.90;;
43124;SDS011;49182;50.788;7.318;2022-08-06T08:09:32;4.75;;;0.95;;
43124;SDS011;49182;50.788;7.318;2022-08-06T08:12:21;2.55;;;0.90;;
43124;SDS011;49182;50.788;7.318;2022-08-06T08:15:02;4.90;;;0.85;;
43124;SDS011;49182;50.788;7.318;2022-08-06T08:17:44;5.32;;;1.10;;
43124;SDS011;49182;50.788;7.318;2022-08-06T08:20:21;4.78;;;0.80;;
43124;SDS011;49182;50.788;7.318;2022-08-06T08:22:53;4.97;;;0.90;;
43124;SDS011;49182;50.788;7.318;2022-08-06T08:25:20;5.65;;;0.82;;
43124;SDS011;49182;50.788;7.318;2022-08-06T08:28:06;4.40;;;1.00;;
43124;SDS011;49182;50.788;7.318;2022-08-06T08:30:37;9.95;;;0.95;;
43124;SDS011;49182;50.788;7.318;2022-08-06T08:33:05;4.00;;;0.82;;
43124;SDS011;49182;50.788;7.318;2022-08-06T08:35:40;2.83;;;0.63;;
43124;SDS011;49182;50.788;7.318;2022-08-06T08:38:26;2.58;;;0.68;;
43124;SDS011;49182;50.788;7.318;2022-08-06T08:40:55;3.83;;;1.00;;
43124;SDS011;49182;50.788;7.318;2022-08-06T08:43:29;2.50;;;0.70;;
43124;SDS011;49182;50.788;7.318;2022-08-06T08:46:18;3.13;;;0.77;;
43124;SDS011;49182;50.788;7.318;2022-08-06T08:49:00;4.20;;;1.05;;
43124;SDS011;49182;50.788;7.318;2022-08-06T08:51:30;2.67;;;0.65;;
43124;SDS011;49182;50.788;7.318;2022-08-06T08:54:09;2.25;;;0.70;;
43124;SDS011;49182;50.788;7.318;2022-08-06T08:56:43;3.63;;;0.63;;
43124;SDS011;49182;50.788;7.318;2022-08-06T08:59:30;4.70;;;1.75;;
43124;SDS011;49182;50.788;7.318;2022-08-06T09:02:17;3.75;;;0.80;;
43124;SDS011;49182;50.788;7.318;2022-08-06T09:04:45;3.20;;;0.60;;
43124;SDS011;49182;50.788;7.318;2022-08-06T09:07:13;2.42;;;0.60;;
43124;SDS011;49182;50.788;7.318;2022-08-06T09:09:51;3.95;;;0.65;;
43124;SDS011;49182;50.788;7.318;2022-08-06T09:12:29;2.15;;;0.50;;
43124;SDS011;49182;50.788;7.318;2022-08-06T09:15:01;1.95;;;0.55;;
43124;SDS011;49182;50.788;7.318;2022-08-06T09:17:28;4.22;;;0.60;;
43124;SDS011;49182;50.788;7.318;2022-08-06T09:20:17;4.95;;;1.00;;
43124;SDS011;49182;50.788;7.318;2022-08-06T09:22:44;2.97;;;0.60;;
43124;SDS011;49182;50.788;7.318;2022-08-06T09:28:27;3.75;;;0.50;;
43124;SDS011;49182;50.788;7.318;2022-08-06T09:30:57;1.55;;;0.50;;
43124;SDS011;49182;50.788;7.318;2022-08-06T09:33:25;2.50;;;0.60;;
43124;SDS011;49182;50.788;7.318;2022-08-06T09:36:14;3.15;;;0.80;;
43124;SDS011;49182;50.788;7.318;2022-08-06T09:38:56;3.72;;;0.80;;
43124;SDS011;49182;50.788;7.318;2022-08-06T09:41:26;2.10;;;0.60;;
43124;SDS011;49182;50.788;7.318;2022-08-06T09:43:55;1.25;;;0.50;;
43124;SDS011;49182;50.788;7.318;2022-08-06T09:46:37;3.50;;;0.57;;
43124;SDS011;49182;50.788;7.318;2022-08-06T09:49:06;2.75;;;0.60;;
43124;SDS011;49182;50.788;7.318;2022-08-06T09:52:14;3.70;;;0.70;;
43124;SDS011;49182;50.788;7.318;2022-08-06T09:54:43;3.22;;;0.50;;
43124;SDS011;49182;50.788;7.318;2022-08-06T09:57:11;1.95;;;0.57;;
43124;SDS011;49182;50.788;7.318;2022-08-06T09:59:41;1.55;;;0.57;;
43124;SDS011;49182;50.788;7.318;2022-08-06T10:02:11;4.47;;;0.57;;
43124;SDS011;49182;50.788;7.318;2022-08-06T10:04:38;6.07;;;0.43;;
43124;SDS011;49182;50.788;7.318;2022-08-06T10:07:10;1.42;;;0.43;;
43124;SDS011;49182;50.788;7.318;2022-08-06T10:09:45;1.65;;;0.50;;
43124;SDS011;49182;50.788;7.318;2022-08-06T10:12:17;2.90;;;0.47;;
43124;SDS011;49182;50.788;7.318;2022-08-06T10:14:45;2.35;;;0.75;;
43124;SDS011;49182;50.788;7.318;2022-08-06T10:17:14;2.15;;;0.70;;
43124;SDS011;49182;50.788;7.318;2022-08-06T10:19:43;1.48;;;0.50;;
43124;SDS011;49182;50.788;7.318;2022-08-06T10:22:18;2.08;;;0.50;;
43124;SDS011;49182;50.788;7.318;2022-08-06T10:24:49;2.63;;;0.70;;
43124;SDS011;49182;50.788;7.318;2022-08-06T10:27:23;2.42;;;0.60;;
43124;SDS011;49182;50.788;7.318;2022-08-06T10:30:03;1.90;;;0.47;;
43124;SDS011;49182;50.788;7.318;2022-08-06T10:32:33;1.60;;;0.50;;
43124;SDS011;49182;50.788;7.318;2022-08-06T10:35:09;3.30;;;0.65;;
43124;SDS011;49182;50.788;7.318;2022-08-06T10:37:41;2.33;;;0.50;;
43124;SDS011;49182;50.788;7.318;2022-08-06T10:40:16;3.17;;;0.63;;
43124;SDS011;49182;50.788;7.318;2022-08-06T10:42:56;2.40;;;0.50;;
43124;SDS011;49182;50.788;7.318;2022-08-06T10:45:24;2.55;;;0.55;;
43124;SDS011;49182;50.788;7.318;2022-08-06T10:47:52;1.90;;;0.50;;
43124;SDS011;49182;50.788;7.318;2022-08-06T10:50:40;2.58;;;0.50;;
43124;SDS011;49182;50.788;7.318;2022-08-06T10:53:21;2.05;;;0.50;;
43124;SDS011;49182;50.788;7.318;2022-08-06T10:56:10;2.92;;;0.52;;
43124;SDS011;49182;50.788;7.318;2022-08-06T10:58:43;2.92;;;0.70;;
43124;SDS011;49182;50.788;7.318;2022-08-06T11:01:13;2.15;;;0.40;;
43124;SDS011;49182;50.788;7.318;2022-08-06T11:03:49;4.63;;;0.68;;
43124;SDS011;49182;50.788;7.318;2022-08-06T11:06:40;2.13;;;0.50;;
43124;SDS011;49182;50.788;7.318;2022-08-06T11:09:31;2.22;;;0.50;;
43124;SDS011;49182;50.788;7.318;2022-08-06T11:12:44;0.90;;;0.30;;
43124;SDS011;49182;50.788;7.318;2022-08-06T11:15:16;2.28;;;0.40;;
43124;SDS011;49182;50.788;7.318;2022-08-06T11:17:49;1.98;;;0.35;;
43124;SDS011;49182;50.788;7.318;2022-08-06T11:20:36;1.77;;;0.30;;
43124;SDS011;49182;50.788;7.318;2022-08-06T11:23:21;1.17;;;0.50;;
43124;SDS011;49182;50.788;7.318;2022-08-06T11:26:09;1.40;;;0.38;;
43124;SDS011;49182;50.788;7.318;2022-08-06T11:34:22;2.20;;;0.50;;
43124;SDS011;49182;50.788;7.318;2022-08-06T11:40:31;1.67;;;0.40;;
43124;SDS011;49182;50.788;7.318;2022-08-06T11:46:31;1.23;;;0.30;;
43124;SDS011;49182;50.788;7.318;2022-08-06T11:49:15;1.75;;;0.40;;
43124;SDS011;49182;50.788;7.318;2022-08-06T11:51:46;0.95;;;0.30;;
43124;SDS011;49182;50.788;7.318;2022-08-06T11:54:29;1.70;;;0.28;;
43124;SDS011;49182;50.788;7.318;2022-08-06T12:00:11;2.65;;;0.40;;
43124;SDS011;49182;50.788;7.318;2022-08-06T12:02:45;1.45;;;0.40;;
43124;SDS011;49182;50.788;7.318;2022-08-06T12:05:36;2.28;;;0.40;;
43124;SDS011;49182;50.788;7.318;2022-08-06T12:08:22;1.10;;;0.32;;
43124;SDS011;49182;50.788;7.318;2022-08-06T12:11:24;0.90;;;0.30;;
43124;SDS011;49182;50.788;7.318;2022-08-06T12:14:02;1.48;;;0.40;;
43124;SDS011;49182;50.788;7.318;2022-08-06T12:16:50;2.05;;;0.40;;
43124;SDS011;49182;50.788;7.318;2022-08-06T12:19:21;2.20;;;0.40;;
43124;SDS011;49182;50.788;7.318;2022-08-06T12:21:52;1.08;;;0.35;;
43124;SDS011;49182;50.788;7.318;2022-08-06T12:24:23;0.90;;;0.20;;
43124;SDS011;49182;50.788;7.318;2022-08-06T12:26:50;4.47;;;0.50;;
43124;SDS011;49182;50.788;7.318;2022-08-06T12:29:19;0.88;;;0.22;;
43124;SDS011;49182;50.788;7.318;2022-08-06T12:32:19;1.20;;;0.38;;
43124;SDS011;49182;50.788;7.318;2022-08-06T12:34:52;1.50;;;0.30;;
43124;SDS011;49182;50.788;7.318;2022-08-06T12:37:34;1.88;;;0.52;;
43124;SDS011;49182;50.788;7.318;2022-08-06T12:40:14;3.08;;;0.40;;
43124;SDS011;49182;50.788;7.318;2022-08-06T12:42:44;1.00;;;0.30;;
43124;SDS011;49182;50.788;7.318;2022-08-06T12:45:20;1.17;;;0.45;;
43124;SDS011;49182;50.788;7.318;2022-08-06T12:48:08;1.48;;;0.35;;
43124;SDS011;49182;50.788;7.318;2022-08-06T12:50:39;2.47;;;0.40;;
43124;SDS011;49182;50.788;7.318;2022-08-06T12:53:09;3.92;;;0.32;;
43124;SDS011;49182;50.788;7.318;2022-08-06T12:55:41;1.00;;;0.22;;
43124;SDS011;49182;50.788;7.318;2022-08-06T12:58:10;2.05;;;0.50;;
43124;SDS011;49182;50.788;7.318;2022-08-06T13:00:58;1.80;;;0.50;;
43124;SDS011;49182;50.788;7.318;2022-08-06T13:03:27;1.40;;;0.50;;
43124;SDS011;49182;50.788;7.318;2022-08-06T13:05:57;1.35;;;0.30;;
43124;SDS011;49182;50.788;7.318;2022-08-06T13:08:27;1.30;;;0.38;;
43124;SDS011;49182;50.788;7.318;2022-08-06T13:10:55;4.15;;;0.40;;
43124;SDS011;49182;50.788;7.318;2022-08-06T13:13:33;1.20;;;0.32;;
43124;SDS011;49182;50.788;7.318;2022-08-06T13:16:22;1.67;;;0.75;;
43124;SDS011;49182;50.788;7.318;2022-08-06T13:19:03;1.67;;;0.40;;
43124;SDS011;49182;50.788;7.318;2022-08-06T13:21:40;1.20;;;0.32;;
43124;SDS011;49182;50.788;7.318;2022-08-06T13:24:26;0.85;;;0.38;;
43124;SDS011;49182;50.788;7.318;2022-08-06T13:26:59;1.55;;;0.30;;
43124;SDS011;49182;50.788;7.318;2022-08-06T13:29:31;2.03;;;0.45;;
43124;SDS011;49182;50.788;7.318;2022-08-06T13:32:17;1.98;;;0.40;;
43124;SDS011;49182;50.788;7.318;2022-08-06T13:35:03;1.38;;;0.40;;
43124;SDS011;49182;50.788;7.318;2022-08-06T13:37:44;0.52;;;0.25;;
43124;SDS011;49182;50.788;7.318;2022-08-06T13:40:34;2.80;;;0.38;;
43124;SDS011;49182;50.788;7.318;2022-08-06T13:43:02;1.05;;;0.30;;
43124;SDS011;49182;50.788;7.318;2022-08-06T13:45:30;2.65;;;0.40;;
43124;SDS011;49182;50.788;7.318;2022-08-06T13:48:16;1.60;;;0.47;;
43124;SDS011;49182;50.788;7.318;2022-08-06T13:50:48;3.03;;;0.47;;
43124;SDS011;49182;50.788;7.318;2022-08-06T13:53:17;1.88;;;0.50;;
43124;SDS011;49182;50.788;7.318;2022-08-06T13:55:46;2.40;;;0.50;;
43124;SDS011;49182;50.788;7.318;2022-08-06T13:58:28;1.90;;;0.40;;
43124;SDS011;49182;50.788;7.318;2022-08-06T14:00:55;1.00;;;0.40;;
43124;SDS011;49182;50.788;7.318;2022-08-06T14:03:22;2.72;;;0.43;;
43124;SDS011;49182;50.788;7.318;2022-08-06T14:05:48;1.13;;;0.40;;
43124;SDS011;49182;50.788;7.318;2022-08-06T14:08:18;2.30;;;0.50;;
43124;SDS011;49182;50.788;7.318;2022-08-06T14:11:01;2.20;;;0.40;;
43124;SDS011;49182;50.788;7.318;2022-08-06T14:13:28;3.17;;;0.30;;
43124;SDS011;49182;50.788;7.318;2022-08-06T14:15:55;2.15;;;0.38;;
43124;SDS011;49182;50.788;7.318;2022-08-06T14:18:26;0.75;;;0.22;;
43124;SDS011;49182;50.788;7.318;2022-08-06T14:20:53;1.00;;;0.28;;
43124;SDS011;49182;50.788;7.318;2022-08-06T14:23:22;1.38;;;0.40;;
43124;SDS011;49182;50.788;7.318;2022-08-06T14:26:05;2.92;;;0.40;;
43124;SDS011;49182;50.788;7.318;2022-08-06T14:28:32;6.18;;;0.50;;
43124;SDS011;49182;50.788;7.318;2022-08-06T14:31:06;3.75;;;0.43;;
43124;SDS011;49182;50.788;7.318;2022-08-06T14:33:34;1.58;;;0.35;;
43124;SDS011;49182;50.788;7.318;2022-08-06T14:36:04;1.60;;;0.50;;
43124;SDS011;49182;50.788;7.318;2022-08-06T14:38:34;2.67;;;0.30;;
43124;SDS011;49182;50.788;7.318;2022-08-06T14:41:05;1.83;;;0.50;;
43124;SDS011;49182;50.788;7.318;2022-08-06T14:43:35;1.17;;;0.32;;
43124;SDS011;49182;50.788;7.318;2022-08-06T14:46:06;3.70;;;0.40;;
43124;SDS011;49182;50.788;7.318;2022-08-06T14:48:32;1.60;;;0.38;;
43124;SDS011;49182;50.788;7.318;2022-08-06T14:51:00;1.73;;;0.40;;
43124;SDS011;49182;50.788;7.318;2022-08-06T14:53:30;1.50;;;0.50;;
43124;SDS011;49182;50.788;7.318;2022-08-06T14:55:58;0.82;;;0.30;;
43124;SDS011;49182;50.788;7.318;2022-08-06T14:58:33;1.90;;;0.40;;
43124;SDS011;49182;50.788;7.318;2022-08-06T15:01:00;1.08;;;0.40;;
43124;SDS011;49182;50.788;7.318;2022-08-06T15:03:26;1.27;;;0.35;;
43124;SDS011;49182;50.788;7.318;2022-08-06T15:05:58;0.77;;;0.20;;
43124;SDS011;49182;50.788;7.318;2022-08-06T15:08:31;2.90;;;0.40;;
43124;SDS011;49182;50.788;7.318;2022-08-06T15:11:01;3.55;;;0.80;;
43124;SDS011;49182;50.788;7.318;2022-08-06T15:13:43;1.35;;;0.32;;
43124;SDS011;49182;50.788;7.318;2022-08-06T15:16:19;0.68;;;0.30;;
43124;SDS011;49182;50.788;7.318;2022-08-06T15:19:05;1.10;;;0.50;;
43124;SDS011;49182;50.788;7.318;2022-08-06T15:21:52;1.80;;;0.40;;
43124;SDS011;49182;50.788;7.318;2022-08-06T15:24:23;1.95;;;0.20;;
43124;SDS011;49182;50.788;7.318;2022-08-06T15:26:52;1.38;;;0.35;;
43124;SDS011;49182;50.788;7.318;2022-08-06T15:29:20;1.25;;;0.30;;
43124;SDS011;49182;50.788;7.318;2022-08-06T15:31:49;1.88;;;0.30;;
43124;SDS011;49182;50.788;7.318;2022-08-06T15:34:15;0.90;;;0.30;;
43124;SDS011;49182;50.788;7.318;2022-08-06T15:36:52;1.95;;;0.38;;
43124;SDS011;49182;50.788;7.318;2022-08-06T15:39:29;3.42;;;0.45;;
43124;SDS011;49182;50.788;7.318;2022-08-06T15:42:17;2.60;;;0.35;;
43124;SDS011;49182;50.788;7.318;2022-08-06T15:44:44;1.83;;;0.30;;
43124;SDS011;49182;50.788;7.318;2022-08-06T15:47:12;0.45;;;0.20;;
43124;SDS011;49182;50.788;7.318;2022-08-06T15:49:40;0.93;;;0.28;;
43124;SDS011;49182;50.788;7.318;2022-08-06T15:52:27;1.10;;;0.40;;
43124;SDS011;49182;50.788;7.318;2022-08-06T15:54:58;3.45;;;0.80;;
43124;SDS011;49182;50.788;7.318;2022-08-06T15:57:27;2.92;;;0.55;;
43124;SDS011;49182;50.788;7.318;2022-08-06T16:00:14;0.55;;;0.30;;
43124;SDS011;49182;50.788;7.318;2022-08-06T16:02:43;1.77;;;0.50;;
43124;SDS011;49182;50.788;7.318;2022-08-06T16:05:16;2.30;;;0.30;;